Time;durP1;ratioP1;P1;durP2;ratioP2;P2;SDS_P1;SDS_P2;PMS_P1;PMS_P2;Temp;Humidity;BMP_temperature;BMP_pressure;BME280_temperature;BME280_humidity;BME280_pressure;Samples;Min_cycle;Max_cycle;Signal;HPM_P1;HPM_P2
2023/01/01 00:00:21;;;;;;;48.90;29.15;;;15.90;99.90;;;;;;10094907;28;20434;-60
2023/01/01 00:05:11;;;;;;;28.40;18.45;;;15.90;99.90;;;;;;10091239;28;20495;-60
2023/01/01 00:15:12;;;;;;;22.58;14.70;;;15.80;99.90;;;;;;10094142;28;20082;-60
2023/01/01 00:20:03;;;;;;;13.90;8.98;;;15.80;99.90;;;;;;10094655;28;20087;-60
2023/01/01 00:24:53;;;;;;;14.25;8.73;;;15.70;99.90;;;;;;10099339;28;20112;-59
2023/01/01 00:29:44;;;;;;;13.05;7.65;;;15.70;99.90;;;;;;10100370;28;20546;-60
2023/01/01 00:34:35;;;;;;;10.93;6.90;;;15.70;99.90;;;;;;10099413;28;20056;-60
2023/01/01 00:39:25;;;;;;;10.07;6.45;;;15.70;99.90;;;;;;10100088;28;20158;-62
2023/01/01 00:44:16;;;;;;;9.68;5.68;;;15.70;99.90;;;;;;10100865;28;20044;-61
2023/01/01 00:49:07;;;;;;;11.20;6.00;;;15.70;99.90;;;;;;10100266;28;20057;-59
2023/01/01 00:53:57;;;;;;;9.05;5.18;;;15.60;99.90;;;;;;10100453;28;20025;-63
2023/01/01 00:58:48;;;;;;;9.43;5.10;;;15.60;99.90;;;;;;10101097;28;20025;-58
2023/01/01 01:03:39;;;;;;;9.95;5.28;;;15.60;99.90;;;;;;10105171;28;20021;-59
2023/01/01 01:08:31;;;;;;;9.10;5.82;;;15.50;99.90;;;;;;10098990;28;20199;-59
2023/01/01 01:13:22;;;;;;;9.68;5.45;;;15.50;99.90;;;;;;10100662;28;20049;-59
2023/01/01 01:18:13;;;;;;;13.50;7.20;;;15.40;99.90;;;;;;10099724;28;20487;-60
2023/01/01 01:23:04;;;;;;;8.23;4.85;;;15.50;99.90;;;;;;10099279;28;20040;-60
2023/01/01 01:27:54;;;;;;;10.10;5.25;;;15.50;99.90;;;;;;10094818;28;20417;-61
2023/01/01 01:32:45;;;;;;;7.75;3.83;;;15.40;99.90;;;;;;10099536;28;20475;-59
2023/01/01 01:37:35;;;;;;;6.35;4.15;;;15.30;99.90;;;;;;10096626;28;20111;-60
2023/01/01 01:42:27;;;;;;;9.27;4.45;;;15.30;99.90;;;;;;10097705;28;20487;-58
2023/01/01 01:47:24;;;;;;;4.60;3.75;;;15.20;99.90;;;;;;10098475;28;20449;-60
2023/01/01 01:52:15;;;;;;;7.32;4.15;;;15.20;99.90;;;;;;10098155;28;20519;-59
2023/01/01 01:57:10;;;;;;;6.53;5.10;;;15.10;99.90;;;;;;10098176;28;20503;-59
2023/01/01 02:02:01;;;;;;;5.68;4.10;;;15.10;99.90;;;;;;10098013;28;20021;-62
2023/01/01 02:06:53;;;;;;;7.72;3.42;;;15.10;99.90;;;;;;10097455;28;20027;-60
2023/01/01 02:11:43;;;;;;;7.60;4.50;;;15.00;99.90;;;;;;10097704;28;20033;-58
2023/01/01 02:16:40;;;;;;;8.88;4.43;;;15.00;99.90;;;;;;10096448;28;20028;-59
2023/01/01 02:21:39;;;;;;;6.78;3.78;;;14.90;99.90;;;;;;10097781;28;20407;-61
2023/01/01 02:26:44;;;;;;;7.70;4.03;;;15.00;99.90;;;;;;10094260;28;20464;-60
2023/01/01 02:31:43;;;;;;;6.25;3.45;;;14.90;99.90;;;;;;10096943;28;20065;-60
2023/01/01 02:36:39;;;;;;;6.88;3.55;;;14.90;99.90;;;;;;10090603;28;20029;-59
2023/01/01 02:41:35;;;;;;;6.55;3.05;;;14.90;99.90;;;;;;10092886;28;20398;-61
2023/01/01 02:46:31;;;;;;;8.02;3.10;;;14.80;99.90;;;;;;10096403;28;20021;-61
2023/01/01 02:51:22;;;;;;;4.68;2.67;;;14.70;99.90;;;;;;10096210;28;20060;-59
2023/01/01 02:56:25;;;;;;;4.15;2.78;;;14.70;99.90;;;;;;10095734;28;20033;-62
2023/01/01 03:01:25;;;;;;;5.43;2.88;;;14.70;99.90;;;;;;10096465;28;20021;-62
2023/01/01 03:06:36;;;;;;;4.70;3.03;;;14.60;99.90;;;;;;10095910;28;20021;-59
2023/01/01 03:11:46;;;;;;;4.40;2.70;;;14.70;99.90;;;;;;10095495;28;20055;-59
2023/01/01 03:17:00;;;;;;;3.65;2.80;;;14.60;99.90;;;;;;10095432;28;20029;-61
2023/01/01 03:22:08;;;;;;;5.38;3.35;;;14.60;99.90;;;;;;10095704;28;20029;-59
2023/01/01 03:27:04;;;;;;;4.13;2.63;;;14.60;99.90;;;;;;10095775;28;20028;-62
2023/01/01 03:31:58;;;;;;;4.25;3.00;;;14.50;99.90;;;;;;10095589;28;20275;-59
2023/01/01 03:36:54;;;;;;;5.10;2.53;;;14.50;99.90;;;;;;10094020;28;20490;-59
2023/01/01 03:41:54;;;;;;;5.50;2.90;;;14.50;99.90;;;;;;10101032;28;20029;-60
2023/01/01 03:46:45;;;;;;;5.35;2.40;;;14.50;99.90;;;;;;10087558;28;20067;-60
2023/01/01 03:51:57;;;;;;;4.65;2.50;;;14.50;99.90;;;;;;10095077;28;20048;-61
2023/01/01 03:57:00;;;;;;;5.25;3.03;;;14.40;99.90;;;;;;10095624;28;20021;-59
2023/01/01 04:01:56;;;;;;;5.97;2.55;;;14.40;99.90;;;;;;10102879;28;20014;-59
2023/01/01 04:06:47;;;;;;;4.13;2.22;;;14.40;99.90;;;;;;10104533;28;20079;-63
2023/01/01 04:16:49;;;;;;;7.65;2.78;;;14.30;99.90;;;;;;10102108;28;20120;-59
2023/01/01 04:21:40;;;;;;;4.07;2.42;;;14.30;99.90;;;;;;10101455;28;20112;-59
2023/01/01 04:26:31;;;;;;;3.50;1.95;;;14.20;99.90;;;;;;10102634;28;20040;-61
2023/01/01 04:31:21;;;;;;;2.70;2.20;;;14.20;99.90;;;;;;10101771;28;20052;-59
2023/01/01 04:36:12;;;;;;;2.63;2.05;;;14.20;99.90;;;;;;10100592;28;20067;-60
2023/01/01 04:41:03;;;;;;;3.00;1.63;;;14.20;99.90;;;;;;10101248;28;20031;-60
2023/01/01 04:45:56;;;;;;;2.70;1.55;;;14.20;99.90;;;;;;10100907;28;20021;-60
2023/01/01 04:51:00;;;;;;;4.03;1.90;;;14.10;99.90;;;;;;10100344;28;20079;-59
2023/01/01 04:55:51;;;;;;;3.45;2.05;;;14.00;99.90;;;;;;10098941;28;20017;-59
2023/01/01 05:00:41;;;;;;;3.72;1.80;;;14.00;99.90;;;;;;10100682;28;20028;-58
2023/01/01 05:05:32;;;;;;;3.92;1.58;;;14.00;99.90;;;;;;10100424;28;20541;-59
2023/01/01 05:10:23;;;;;;;3.40;1.90;;;14.00;99.90;;;;;;10100305;28;20119;-59
2023/01/01 05:15:13;;;;;;;3.80;2.55;;;14.00;99.90;;;;;;10099549;28;20498;-60
2023/01/01 05:20:04;;;;;;;3.67;2.20;;;14.00;99.90;;;;;;10101258;28;20032;-60
2023/01/01 05:24:55;;;;;;;3.90;2.22;;;14.00;99.90;;;;;;10096403;28;20165;-59
2023/01/01 05:29:45;;;;;;;3.05;1.60;;;13.90;99.90;;;;;;10099361;28;20215;-59
2023/01/01 05:34:36;;;;;;;4.43;1.90;;;13.90;99.90;;;;;;10097913;28;20040;-58
2023/01/01 05:39:27;;;;;;;2.78;1.70;;;13.90;99.90;;;;;;10100056;28;20029;-59
2023/01/01 05:44:18;;;;;;;4.75;2.10;;;13.90;99.90;;;;;;10098827;28;20013;-59
2023/01/01 05:49:12;;;;;;;3.25;2.03;;;13.90;99.90;;;;;;10098581;28;20053;-59
2023/01/01 05:54:02;;;;;;;5.70;3.00;;;13.90;99.90;;;;;;10098757;28;20017;-59
2023/01/01 05:58:54;;;;;;;5.22;2.13;;;13.80;99.90;;;;;;10101731;28;20025;-58
2023/01/01 06:03:47;;;;;;;3.55;2.00;;;13.70;99.90;;;;;;10096337;28;20017;-59
2023/01/01 06:08:38;;;;;;;5.28;2.55;;;13.70;99.90;;;;;;10095023;28;20451;-58
2023/01/01 06:13:30;;;;;;;4.75;2.22;;;13.70;99.90;;;;;;10096452;28;20525;-60
2023/01/01 06:18:21;;;;;;;4.78;2.60;;;13.70;99.90;;;;;;10097127;28;20021;-59
2023/01/01 06:23:12;;;;;;;4.30;2.35;;;13.60;99.90;;;;;;10096570;28;20494;-61
2023/01/01 06:28:03;;;;;;;5.10;2.97;;;13.60;99.90;;;;;;10097299;28;20021;-60
2023/01/01 06:32:53;;;;;;;4.22;2.47;;;13.50;99.90;;;;;;10096891;28;20048;-60
2023/01/01 06:37:44;;;;;;;6.68;3.05;;;13.50;99.90;;;;;;10097499;28;20112;-59
2023/01/01 06:42:35;;;;;;;4.20;2.40;;;13.50;99.90;;;;;;10096396;28;20035;-60
2023/01/01 06:47:25;;;;;;;5.15;2.28;;;13.40;99.90;;;;;;10097435;28;20025;-59
2023/01/01 06:52:16;;;;;;;4.60;2.30;;;13.50;99.90;;;;;;10096146;28;20322;-60
2023/01/01 06:57:06;;;;;;;5.78;2.20;;;13.40;99.90;;;;;;10094781;28;20463;-60
2023/01/01 07:01:57;;;;;;;4.53;2.67;;;13.40;99.90;;;;;;10097030;28;20033;-60
2023/01/01 07:06:48;;;;;;;3.35;1.80;;;13.40;99.90;;;;;;10094930;28;20021;-62
2023/01/01 07:11:38;;;;;;;5.32;2.08;;;13.40;99.90;;;;;;10095997;28;20445;-59
2023/01/01 07:16:29;;;;;;;6.63;3.35;;;13.40;99.90;;;;;;10094267;28;20021;-59
2023/01/01 07:21:32;;;;;;;3.67;2.25;;;13.40;99.90;;;;;;10095839;28;20033;-60
2023/01/01 07:26:24;;;;;;;9.63;2.85;;;13.40;99.90;;;;;;10092419;28;20033;-59
2023/01/01 07:31:15;;;;;;;4.10;2.53;;;13.40;99.90;;;;;;10086096;28;20059;-61
2023/01/01 07:36:06;;;;;;;6.45;2.35;;;13.40;99.90;;;;;;10096464;28;20033;-58
2023/01/01 07:40:57;;;;;;;3.83;2.40;;;13.40;99.90;;;;;;10104609;28;20037;-59
2023/01/01 07:45:47;;;;;;;6.43;2.40;;;13.40;99.90;;;;;;10102957;28;20070;-59
2023/01/01 07:50:38;;;;;;;6.18;1.95;;;13.50;99.90;;;;;;10103269;28;20057;-60
2023/01/01 07:55:29;;;;;;;6.97;2.53;;;13.50;99.90;;;;;;10102804;28;20025;-59
2023/01/01 08:00:21;;;;;;;4.38;2.85;;;13.50;99.90;;;;;;10103080;28;20037;-60
2023/01/01 08:05:12;;;;;;;5.20;3.28;;;13.50;99.90;;;;;;10101808;28;20024;-59
2023/01/01 08:10:04;;;;;;;4.97;2.70;;;13.60;99.90;;;;;;10100085;28;20072;-60
2023/01/01 08:14:55;;;;;;;4.00;2.38;;;13.70;99.90;;;;;;10100731;28;20017;-59
2023/01/01 08:19:46;;;;;;;7.93;2.75;;;13.60;99.90;;;;;;10101770;28;20033;-62
2023/01/01 08:24:36;;;;;;;3.55;2.03;;;13.70;99.90;;;;;;10099740;28;20077;-61
2023/01/01 08:29:27;;;;;;;6.22;2.90;;;13.70;99.90;;;;;;10102058;28;20033;-60
2023/01/01 08:34:18;;;;;;;5.22;2.75;;;13.80;99.90;;;;;;10102280;28;20177;-59
2023/01/01 08:39:08;;;;;;;4.40;2.65;;;13.90;99.90;;;;;;10101375;28;20117;-60
2023/01/01 08:43:59;;;;;;;6.18;2.55;;;14.10;99.90;;;;;;10101658;28;20040;-59
2023/01/01 08:48:50;;;;;;;3.70;2.20;;;14.10;99.90;;;;;;10094955;28;20056;-59
2023/01/01 08:53:40;;;;;;;5.90;2.45;;;14.10;99.90;;;;;;10100803;28;20428;-58
2023/01/01 08:58:33;;;;;;;6.40;2.55;;;14.20;99.90;;;;;;10100905;28;20063;-59
2023/01/01 09:03:24;;;;;;;4.65;3.03;;;14.30;99.90;;;;;;10100717;28;20380;-59
2023/01/01 09:08:14;;;;;;;3.63;2.30;;;14.30;99.90;;;;;;10100908;28;20129;-60
2023/01/01 09:13:05;;;;;;;7.90;2.72;;;14.40;99.90;;;;;;10098716;28;20104;-58
2023/01/01 09:17:56;;;;;;;4.20;2.67;;;14.60;99.90;;;;;;10100137;28;20025;-58
2023/01/01 09:22:46;;;;;;;6.60;2.50;;;14.70;99.90;;;;;;10100718;28;20033;-60
2023/01/01 09:27:37;;;;;;;6.70;2.40;;;14.80;99.90;;;;;;10099979;28;20025;-61
2023/01/01 09:32:28;;;;;;;5.05;1.92;;;14.80;99.90;;;;;;10102010;28;20068;-60
2023/01/01 09:37:18;;;;;;;6.95;2.72;;;15.00;99.90;;;;;;10099996;28;20017;-59
2023/01/01 09:42:20;;;;;;;3.15;2.05;;;15.00;99.90;;;;;;10099085;28;20414;-62
2023/01/01 09:47:28;;;;;;;4.22;1.77;;;15.10;99.90;;;;;;10092999;28;20100;-60
2023/01/01 09:52:19;;;;;;;2.95;1.95;;;15.20;99.90;;;;;;10088223;28;20132;-58
2023/01/01 09:57:12;;;;;;;3.53;2.35;;;15.30;99.90;;;;;;10099791;28;20036;-59
2023/01/01 10:02:12;;;;;;;6.35;2.05;;;15.40;99.90;;;;;;10096625;28;20025;-61
2023/01/01 10:07:12;;;;;;;3.83;1.92;;;15.40;99.90;;;;;;10097095;28;20033;-60
2023/01/01 10:12:09;;;;;;;7.55;2.75;;;15.50;99.90;;;;;;10097361;28;20068;-60
2023/01/01 10:17:07;;;;;;;5.38;2.88;;;15.50;99.90;;;;;;10098519;28;20025;-62
2023/01/01 10:22:06;;;;;;;5.97;3.03;;;15.60;99.90;;;;;;10097541;28;20104;-60
2023/01/01 10:26:58;;;;;;;4.38;3.08;;;15.70;99.90;;;;;;10093846;28;20029;-61
2023/01/01 10:31:49;;;;;;;7.97;3.78;;;15.80;99.90;;;;;;10098115;28;20043;-61
2023/01/01 10:36:41;;;;;;;6.95;2.40;;;15.90;99.90;;;;;;10097410;28;20060;-60
2023/01/01 10:41:32;;;;;;;5.70;3.55;;;16.00;99.90;;;;;;10096427;28;20111;-60
2023/01/01 10:46:25;;;;;;;10.50;2.92;;;16.00;99.90;;;;;;10088950;28;20120;-60
2023/01/01 10:51:16;;;;;;;7.25;3.00;;;16.00;99.90;;;;;;10096874;28;20045;-60
2023/01/01 10:56:11;;;;;;;5.28;2.30;;;16.10;99.90;;;;;;10094576;28;20037;-60
2023/01/01 11:01:04;;;;;;;4.83;2.00;;;16.10;99.90;;;;;;10096873;28;20437;-59
2023/01/01 11:06:15;;;;;;;4.90;2.10;;;16.20;99.90;;;;;;10096349;28;20037;-60
2023/01/01 11:11:06;;;;;;;4.05;2.28;;;16.30;99.90;;;;;;10092867;28;20132;-61
2023/01/01 11:15:57;;;;;;;5.30;1.70;;;16.40;99.90;;;;;;10092150;28;20043;-60
2023/01/01 11:20:54;;;;;;;2.75;1.40;;;16.50;99.90;;;;;;10096846;28;20104;-60
2023/01/01 11:26:16;;;;;;;2.90;1.65;;;16.60;99.90;;;;;;10092330;28;20071;-60
2023/01/01 11:31:16;;;;;;;3.22;2.47;;;16.70;99.90;;;;;;10096008;28;20076;-61
2023/01/01 11:36:07;;;;;;;7.95;2.25;;;16.80;99.90;;;;;;10095581;28;20539;-60
2023/01/01 11:41:04;;;;;;;2.28;1.60;;;16.80;99.90;;;;;;10096074;28;20055;-61
2023/01/01 11:45:57;;;;;;;4.10;2.15;;;16.90;99.90;;;;;;10095070;28;20050;-60
2023/01/01 11:50:56;;;;;;;4.57;2.20;;;17.00;99.90;;;;;;10095277;28;20095;-61
2023/01/01 11:56:12;;;;;;;5.28;2.40;;;17.10;99.90;;;;;;10095324;28;20032;-61
2023/01/01 12:01:34;;;;;;;5.57;2.38;;;17.20;99.90;;;;;;10090058;28;20519;-60
2023/01/01 12:06:44;;;;;;;5.18;1.67;;;17.30;99.90;;;;;;10079071;28;20481;-60
2023/01/01 12:11:47;;;;;;;5.03;1.98;;;17.40;99.90;;;;;;10093545;28;20073;-61
2023/01/01 12:16:59;;;;;;;3.17;2.05;;;17.60;99.90;;;;;;10093039;28;20426;-60
2023/01/01 12:21:53;;;;;;;5.68;3.00;;;17.70;99.90;;;;;;10090967;28;20032;-60
2023/01/01 12:27:26;;;;;;;5.78;1.98;;;17.80;99.90;;;;;;10116053;28;20029;-60
2023/01/01 12:32:48;;;;;;;5.43;1.98;;;17.80;99.90;;;;;;10099969;28;20543;-61
2023/01/01 12:38:14;;;;;;;2.97;1.60;;;17.90;99.90;;;;;;10092151;28;20036;-59
2023/01/01 12:43:14;;;;;;;;;;;17.80;99.90;;;;;;10092623;28;20090;-60
2023/01/01 12:48:26;;;;;;;9.43;2.50;;;17.90;99.90;;;;;;10099327;28;20019;-59
2023/01/01 12:53:41;;;;;;;4.85;1.70;;;18.00;99.90;;;;;;10100977;28;20193;-60
2023/01/01 12:58:34;;;;;;;;;;;18.00;99.90;;;;;;10101703;28;20021;-61
2023/01/01 13:03:59;;;;;;;3.30;1.42;;;18.10;99.90;;;;;;10100129;28;20381;-59
2023/01/01 13:08:56;;;;;;;3.20;1.67;;;18.10;99.90;;;;;;10101190;28;20116;-61
2023/01/01 13:13:47;;;;;;;5.00;1.70;;;18.10;99.90;;;;;;10100252;28;20032;-60
2023/01/01 13:18:38;;;;;;;3.60;1.50;;;18.10;99.90;;;;;;10099380;28;20068;-59
2023/01/01 13:23:33;;;;;;;4.07;1.52;;;18.10;99.90;;;;;;10099547;28;20025;-60
2023/01/01 13:28:24;;;;;;;6.38;1.90;;;18.20;99.90;;;;;;10099254;28;20055;-59
2023/01/01 13:33:19;;;;;;;5.43;2.33;;;18.40;99.90;;;;;;10097810;28;20594;-61
2023/01/01 13:38:43;;;;;;;7.05;1.80;;;18.40;99.90;;;;;;10098822;28;20033;-58
2023/01/01 13:43:34;;;;;;;5.88;1.63;;;18.40;99.80;;;;;;10096557;28;20028;-60
2023/01/01 13:49:03;;;;;;;3.38;2.00;;;18.30;99.90;;;;;;10098766;28;20040;-61
2023/01/01 13:53:59;;;;;;;5.10;1.60;;;18.40;99.80;;;;;;10073246;28;20080;-61
2023/01/01 13:58:59;;;;;;;8.60;1.95;;;18.40;99.70;;;;;;10096942;28;20075;-59
2023/01/01 14:03:54;;;;;;;7.13;2.88;;;18.40;99.60;;;;;;10098171;28;20090;-59
2023/01/01 14:08:44;;;;;;;4.63;1.77;;;18.40;99.60;;;;;;10098063;28;20075;-58
2023/01/01 14:13:39;;;;;;;4.18;1.67;;;18.30;99.50;;;;;;10098023;28;20389;-59
2023/01/01 14:18:30;;;;;;;6.15;2.30;;;18.30;99.50;;;;;;10096882;28;20033;-58
2023/01/01 14:23:36;;;;;;;4.03;1.67;;;18.20;99.50;;;;;;10097524;28;20041;-58
2023/01/01 14:28:32;;;;;;;3.83;1.85;;;18.20;99.40;;;;;;10093616;28;20052;-58
2023/01/01 14:33:30;;;;;;;5.40;2.28;;;18.10;99.40;;;;;;10094299;28;20029;-58
2023/01/01 14:38:34;;;;;;;4.75;1.80;;;18.00;99.40;;;;;;10093529;28;20017;-61
2023/01/01 14:43:26;;;;;;;3.40;2.30;;;17.90;99.40;;;;;;10091349;28;20499;-59
2023/01/01 14:48:19;;;;;;;4.13;1.80;;;17.80;99.40;;;;;;10094626;28;20021;-60
2023/01/01 14:53:17;;;;;;;6.55;2.70;;;17.70;99.50;;;;;;10094825;28;20041;-60
2023/01/01 14:58:19;;;;;;;5.45;2.17;;;17.60;99.50;;;;;;10094832;28;20033;-56
2023/01/01 15:03:14;;;;;;;3.85;2.03;;;17.50;99.60;;;;;;10094438;28;20033;-59
2023/01/01 15:08:16;;;;;;;3.00;1.83;;;17.40;99.60;;;;;;10095038;28;20025;-59
2023/01/01 15:13:06;;;;;;;7.85;2.00;;;17.40;99.60;;;;;;10093484;28;20037;-62
2023/01/01 15:17:57;;;;;;;6.10;2.60;;;17.30;99.70;;;;;;10093944;28;20112;-60
2023/01/01 15:22:49;;;;;;;5.68;2.30;;;17.20;99.70;;;;;;10094763;28;20029;-61
2023/01/01 15:27:42;;;;;;;4.93;2.05;;;17.00;99.70;;;;;;10093026;28;20025;-58
2023/01/01 15:32:36;;;;;;;4.15;2.50;;;16.90;99.70;;;;;;10095452;28;20083;-59
2023/01/01 15:37:32;;;;;;;12.95;5.28;;;16.80;99.80;;;;;;10095736;28;20100;-60
2023/01/01 15:42:47;;;;;;;11.50;5.95;;;16.60;99.90;;;;;;10094081;28;20024;-60
2023/01/01 15:47:38;;;;;;;6.88;3.42;;;16.40;99.90;;;;;;10093567;28;20406;-61
2023/01/01 15:52:30;;;;;;;6.10;3.15;;;16.30;99.90;;;;;;10091581;28;20050;-60
2023/01/01 15:57:23;;;;;;;5.88;3.28;;;16.20;99.90;;;;;;10095544;28;20028;-61
2023/01/01 16:02:20;;;;;;;9.55;4.35;;;16.10;99.90;;;;;;10102615;28;20092;-63
2023/01/01 16:07:19;;;;;;;9.43;4.28;;;16.00;99.90;;;;;;10102004;28;20528;-61
2023/01/01 16:12:10;;;;;;;6.38;3.65;;;15.90;99.90;;;;;;10096807;28;20048;-62
2023/01/01 16:17:01;;;;;;;6.80;3.45;;;15.80;99.90;;;;;;10100685;28;20036;-62
2023/01/01 16:21:51;;;;;;;8.63;3.60;;;15.70;99.90;;;;;;10101907;28;20053;-60
2023/01/01 16:26:42;;;;;;;8.60;3.80;;;15.60;99.90;;;;;;10102119;28;20074;-59
2023/01/01 16:31:33;;;;;;;6.60;4.05;;;15.50;99.90;;;;;;10099088;28;20043;-60
2023/01/01 16:36:28;;;;;;;9.05;4.97;;;15.40;99.90;;;;;;10096180;28;20055;-60
2023/01/01 16:41:19;;;;;;;13.00;4.80;;;15.30;99.90;;;;;;10101095;28;20357;-60
2023/01/01 16:46:10;;;;;;;10.23;5.10;;;15.20;99.90;;;;;;10095373;28;20029;-60
2023/01/01 16:51:00;;;;;;;14.10;4.70;;;15.20;99.90;;;;;;10095338;28;20052;-62
2023/01/01 16:55:51;;;;;;;9.00;5.25;;;15.20;99.90;;;;;;10101491;28;20040;-59
2023/01/01 17:00:42;;;;;;;13.63;5.35;;;15.20;99.90;;;;;;10100334;28;20418;-60
2023/01/01 17:05:35;;;;;;;14.40;6.47;;;15.20;99.90;;;;;;10099642;28;20029;-59
2023/01/01 17:10:26;;;;;;;10.25;5.80;;;15.30;99.90;;;;;;10106504;28;20069;-59
2023/01/01 17:15:16;;;;;;;14.35;5.75;;;15.30;99.90;;;;;;10100769;28;20056;-60
2023/01/01 17:20:07;;;;;;;11.57;5.70;;;15.30;99.90;;;;;;10105011;28;20028;-59
2023/01/01 17:24:58;;;;;;;9.65;4.45;;;15.30;99.90;;;;;;10097775;28;20438;-62
2023/01/01 17:29:49;;;;;;;7.80;4.38;;;15.30;99.90;;;;;;10099297;28;20040;-61
2023/01/01 17:34:39;;;;;;;7.10;4.18;;;15.30;99.90;;;;;;10092523;28;20025;-61
2023/01/01 17:39:30;;;;;;;10.90;3.63;;;15.40;99.90;;;;;;10099596;28;20091;-61
2023/01/01 17:44:20;;;;;;;8.93;4.15;;;15.50;99.90;;;;;;10101534;28;20116;-61
2023/01/01 17:49:11;;;;;;;9.75;3.50;;;15.50;99.90;;;;;;10098683;28;20385;-62
2023/01/01 17:54:03;;;;;;;6.95;3.17;;;15.40;99.90;;;;;;10100112;28;20207;-60
2023/01/01 17:58:54;;;;;;;6.35;3.42;;;15.40;99.90;;;;;;10113615;28;20025;-61
2023/01/01 18:03:44;;;;;;;5.10;2.92;;;15.40;99.90;;;;;;10097566;28;20079;-61
2023/01/01 18:08:35;;;;;;;7.38;3.35;;;15.50;99.90;;;;;;10097595;28;20043;-60
2023/01/01 18:13:26;;;;;;;10.15;4.72;;;15.50;99.90;;;;;;10097669;28;20407;-59
2023/01/01 18:18:16;;;;;;;5.53;3.22;;;15.40;99.90;;;;;;10093813;28;20028;-63
2023/01/01 18:23:07;;;;;;;10.68;3.75;;;15.40;99.90;;;;;;10092419;28;20091;-62
2023/01/01 18:27:57;;;;;;;5.03;2.45;;;15.30;99.90;;;;;;10102233;28;20415;-61
2023/01/01 18:32:48;;;;;;;5.45;3.13;;;15.30;99.90;;;;;;10097148;28;20062;-62
2023/01/01 18:37:39;;;;;;;9.00;3.72;;;15.30;99.90;;;;;;10093425;28;20060;-63
2023/01/01 18:42:49;;;;;;;10.90;3.72;;;15.20;99.90;;;;;;10092767;28;20052;-64
2023/01/01 18:47:40;;;;;;;6.25;3.05;;;15.10;99.90;;;;;;10095957;28;20073;-61
2023/01/01 18:52:32;;;;;;;6.05;3.45;;;15.00;99.90;;;;;;10094331;28;20045;-63
2023/01/01 18:57:23;;;;;;;7.88;3.15;;;14.90;99.90;;;;;;10095899;28;20047;-62
2023/01/01 19:02:37;;;;;;;4.95;2.97;;;14.90;99.90;;;;;;10094661;28;20032;-61
2023/01/01 19:07:27;;;;;;;6.43;2.88;;;14.90;99.90;;;;;;10090333;28;20052;-60
2023/01/01 19:12:18;;;;;;;6.18;2.60;;;14.90;99.90;;;;;;10096162;28;20069;-62
2023/01/01 19:17:19;;;;;;;6.28;3.35;;;14.90;99.90;;;;;;10095922;28;20033;-62
2023/01/01 19:22:26;;;;;;;7.85;2.72;;;15.00;99.90;;;;;;10096016;28;20104;-65
2023/01/01 19:27:20;;;;;;;3.40;1.98;;;15.00;99.90;;;;;;10093650;28;20467;-63
2023/01/01 19:32:11;;;;;;;3.33;2.17;;;15.00;99.90;;;;;;10099816;28;20041;-63
2023/01/01 19:37:02;;;;;;;7.00;2.38;;;15.00;99.90;;;;;;10107940;28;20026;-64
2023/01/01 19:41:52;;;;;;;5.45;2.20;;;15.00;99.90;;;;;;10108501;28;20443;-60
2023/01/01 19:46:43;;;;;;;5.85;2.92;;;15.00;99.90;;;;;;10109695;28;20029;-61
2023/01/01 19:51:33;;;;;;;5.82;1.90;;;15.00;99.90;;;;;;10107826;28;20507;-59
2023/01/01 19:56:24;;;;;;;5.53;2.15;;;14.90;99.90;;;;;;10107896;28;20130;-63
2023/01/01 20:01:15;;;;;;;8.45;2.42;;;14.90;99.90;;;;;;10105655;28;20108;-61
2023/01/01 20:06:07;;;;;;;7.35;3.88;;;14.80;99.90;;;;;;10108334;28;20025;-62
2023/01/01 20:10:59;;;;;;;5.53;2.35;;;14.70;99.90;;;;;;10106301;28;20465;-62
2023/01/01 20:15:50;;;;;;;6.68;2.92;;;14.70;99.90;;;;;;10108137;28;20510;-62
2023/01/01 20:22:09;;;;;;;5.10;2.17;;;14.70;99.90;;;;;;10108592;28;20043;-65
2023/01/01 20:25:51;;;;;;;7.47;3.15;;;14.60;99.90;;;;;;10105481;28;20036;-61
2023/01/01 20:30:41;;;;;;;4.18;2.60;;;14.60;99.90;;;;;;10108117;28;20025;-62
2023/01/01 20:40:41;;;;;;;5.95;2.70;;;14.50;99.90;;;;;;10107776;28;20094;-64
2023/01/01 20:45:32;;;;;;;12.40;6.10;;;14.40;99.90;;;;;;10103213;28;20111;-64
2023/01/01 20:50:22;;;;;;;6.70;4.13;;;14.40;99.90;;;;;;10094558;28;20391;-61
2023/01/01 20:55:13;;;;;;;7.63;3.75;;;14.40;99.90;;;;;;10101245;28;20029;-62
2023/01/01 21:00:05;;;;;;;5.88;2.67;;;14.30;99.90;;;;;;10100196;28;20082;-63
2023/01/01 21:04:56;;;;;;;6.15;2.78;;;14.30;99.90;;;;;;10100742;28;20048;-63
2023/01/01 21:09:46;;;;;;;4.82;2.58;;;14.20;99.90;;;;;;10099786;28;20522;-60
2023/01/01 21:14:37;;;;;;;5.13;2.25;;;14.30;99.90;;;;;;10098541;28;20033;-64
2023/01/01 21:19:28;;;;;;;4.22;2.17;;;14.30;99.90;;;;;;10100638;28;20036;-63
2023/01/01 21:24:26;;;;;;;4.18;2.38;;;14.30;99.90;;;;;;10096980;28;20043;-62
2023/01/01 21:29:20;;;;;;;6.20;2.20;;;14.40;99.90;;;;;;10099339;28;20025;-62
2023/01/01 21:34:31;;;;;;;5.55;2.50;;;14.40;99.90;;;;;;10101578;28;20021;-61
2023/01/01 21:39:26;;;;;;;5.82;2.50;;;14.40;99.90;;;;;;10099435;28;20021;-61
2023/01/01 21:44:17;;;;;;;6.00;2.17;;;14.30;99.90;;;;;;10097439;28;20100;-63
2023/01/01 21:49:11;;;;;;;2.95;2.33;;;14.30;99.90;;;;;;10095992;28;20071;-61
2023/01/01 21:54:21;;;;;;;8.98;2.72;;;14.30;99.90;;;;;;10094699;28;20067;-63
2023/01/01 21:59:24;;;;;;;6.13;2.45;;;14.30;99.90;;;;;;10092479;28;20128;-64
2023/01/01 22:04:21;;;;;;;4.03;2.13;;;14.20;99.90;;;;;;10093354;28;20066;-64
2023/01/01 22:09:21;;;;;;;5.40;2.50;;;14.20;99.90;;;;;;10092954;28;20085;-65
2023/01/01 22:14:17;;;;;;;4.53;2.25;;;14.20;99.90;;;;;;10096391;28;20040;-61
2023/01/01 22:19:14;;;;;;;6.10;2.25;;;14.20;99.90;;;;;;10095685;28;20049;-62
2023/01/01 22:24:26;;;;;;;16.10;7.85;;;14.20;99.90;;;;;;10095531;28;20438;-63
2023/01/01 22:29:23;;;;;;;7.72;2.85;;;14.30;99.90;;;;;;10094232;28;20039;-64
2023/01/01 22:34:20;;;;;;;5.93;2.20;;;14.30;99.90;;;;;;10094524;28;20029;-63
2023/01/01 22:39:27;;;;;;;4.57;2.20;;;14.40;99.90;;;;;;10094281;28;20052;-63
2023/01/01 22:44:18;;;;;;;6.22;2.50;;;14.50;99.90;;;;;;10095074;28;20436;-63
2023/01/01 22:49:23;;;;;;;5.65;2.03;;;14.60;99.90;;;;;;10095345;28;20131;-64
2023/01/01 22:54:14;;;;;;;3.53;2.50;;;14.70;99.90;;;;;;10093567;28;20029;-63
2023/01/01 22:59:04;;;;;;;4.60;2.72;;;14.70;99.90;;;;;;10096067;28;20120;-60
2023/01/01 23:03:55;;;;;;;3.63;1.80;;;14.80;99.90;;;;;;10094808;28;20029;-60
2023/01/01 23:08:46;;;;;;;3.13;1.90;;;14.80;99.90;;;;;;10093719;28;20045;-60
2023/01/01 23:18:46;;;;;;;2.85;1.38;;;14.90;99.90;;;;;;10094163;28;20032;-63
2023/01/01 23:23:38;;;;;;;2.80;1.75;;;14.80;99.90;;;;;;10094240;28;20079;-60
2023/01/01 23:28:30;;;;;;;4.63;2.03;;;14.80;99.90;;;;;;10093874;28;20017;-61
2023/01/01 23:33:21;;;;;;;4.18;2.15;;;14.90;99.90;;;;;;10093873;28;20037;-60
2023/01/01 23:38:12;;;;;;;4.03;1.70;;;14.90;99.90;;;;;;10094092;28;20025;-59
2023/01/01 23:43:02;;;;;;;3.72;1.70;;;15.00;99.90;;;;;;10092480;28;20033;-59
2023/01/01 23:47:53;;;;;;;3.92;1.60;;;15.00;99.90;;;;;;10094011;28;20013;-63
2023/01/01 23:52:44;;;;;;;3.50;1.67;;;15.10;99.90;;;;;;10093342;28;20120;-62
2023/01/01 23:57:34;;;;;;;8.30;1.88;;;15.10;99.90;;;;;;10093921;28;20100;-60
